Waldorf, Minnesota
Current Conditions -  °F | °C
As of 12:35 PM on Sunday 21 Dec 2014 (Local Time) from KACQ Reporting Station
Haze Haze  
Wind Chill: 25°   Ceiling: 400
Heat Index: 36°   Visibility: 1.5mi
Dew Point: 36°   Wind: 17mph
Humidity: 100%   Direction: 160°SSE
Pressure: 29.79"   Gusts: 21mph
Location:  43.93°N, 93.7°W
Report Text: KACQ 211835Z AUTO 16015G18KT 1 1/2SM BR OVC004 02/02 A2979 RMK AO2
Loading
Personal Weather Stations






























Interactive Weather Map New forecast layout! Learn more

10-Day Weather Forecast

Advertisements
Track Severe Weather on mobile